Layton, New Jersey
Current Conditions -  °F | °C
As of 5:53 PM on Saturday 20 Dec 2014 (Local Time) from KFWN Reporting Station
Overcast Overcast  
Wind Chill: 30°   Ceiling: 2600
Heat Index: 30°   Visibility: 10mi
Dew Point: 20°   Wind: 3mph
Humidity: 66%   Direction: 330°NNW
Pressure: 30.26"   Gusts: NA
Location:  41.16°N, 74.82°W
Report Text: KFWN 202253Z AUTO 33003KT 10SM OVC026 M01/M07 A3026 RMK AO2 SLP253 T10111067
Loading
Personal Weather Stations






























Interactive Weather Map New forecast layout! Learn more

10-Day Weather Forecast

Advertisements
Track Severe Weather on mobile